Time;durP1;ratioP1;P1;durP2;ratioP2;P2;SDS_P1;SDS_P2;PMS_P1;PMS_P2;Temp;Humidity;BMP_temperature;BMP_pressure;BME280_temperature;BME280_humidity;BME280_pressure;Samples;Min_cycle;Max_cycle;Signal;HPM_P1;HPM_P2
2020/12/12 00:00:27;;;;;;;26.87;14.50;;;8.80;99.90;;;;;;4007471;29;20211;-92
2020/12/12 00:02:30;;;;;;;29.47;15.13;;;8.90;99.90;;;;;;3992102;29;20176;-92
2020/12/12 00:04:31;;;;;;;29.77;15.90;;;8.90;99.90;;;;;;4006987;29;20175;-91
2020/12/12 00:06:32;;;;;;;27.40;15.13;;;9.00;99.90;;;;;;3992517;29;20210;-92
2020/12/12 00:08:32;;;;;;;29.30;15.53;;;9.10;99.90;;;;;;3992917;29;20188;-92
2020/12/12 00:10:33;;;;;;;33.40;15.33;;;9.10;99.90;;;;;;3991886;29;20210;-92
2020/12/12 00:12:35;;;;;;;28.97;14.97;;;9.10;99.90;;;;;;4007269;29;20211;-91
2020/12/12 00:14:36;;;;;;;29.20;15.43;;;9.00;99.90;;;;;;3992318;29;20231;-91
2020/12/12 00:16:36;;;;;;;33.17;14.30;;;8.90;99.90;;;;;;3991906;29;20223;-91
2020/12/12 00:18:37;;;;;;;26.93;14.50;;;8.90;99.90;;;;;;3991976;29;20172;-92
2020/12/12 00:20:38;;;;;;;29.97;14.43;;;8.90;99.90;;;;;;4006952;29;20179;-92
2020/12/12 00:22:39;;;;;;;27.50;14.90;;;8.90;99.90;;;;;;3991823;29;20569;-91
2020/12/12 00:24:40;;;;;;;37.33;14.53;;;9.10;99.90;;;;;;4006965;29;20266;-92
2020/12/12 00:26:40;;;;;;;36.67;15.83;;;9.20;99.90;;;;;;3992353;29;20302;-92
2020/12/12 00:28:41;;;;;;;34.00;15.83;;;9.30;99.90;;;;;;4006840;29;20181;-91
2020/12/12 00:30:42;;;;;;;36.83;15.97;;;9.50;99.90;;;;;;3991810;29;20168;-91
2020/12/12 00:32:42;;;;;;;32.03;15.57;;;9.40;99.90;;;;;;4006962;29;20254;-93
2020/12/12 00:34:43;;;;;;;40.07;15.47;;;9.50;99.90;;;;;;3991862;29;20179;-92
2020/12/12 00:36:45;;;;;;;33.57;15.70;;;9.50;99.90;;;;;;4006538;29;20571;-91
2020/12/12 00:38:45;;;;;;;41.17;14.73;;;9.60;99.90;;;;;;4006980;29;20642;-90
2020/12/12 00:40:46;;;;;;;42.20;15.77;;;9.60;99.90;;;;;;3991934;29;20183;-93
2020/12/12 00:42:47;;;;;;;36.83;15.53;;;9.60;99.90;;;;;;3991947;29;20172;-91
2020/12/12 00:44:48;;;;;;;44.43;16.70;;;9.60;99.90;;;;;;3992036;29;20309;-92
2020/12/12 00:46:48;;;;;;;35.63;14.27;;;9.60;99.90;;;;;;3992833;29;20256;-92
2020/12/12 00:48:49;;;;;;;34.60;15.20;;;9.60;99.90;;;;;;3994578;29;20224;-91
2020/12/12 00:50:50;;;;;;;39.77;15.50;;;9.50;99.90;;;;;;4009560;29;20211;-91
2020/12/12 00:52:51;;;;;;;31.13;15.10;;;9.50;99.90;;;;;;3994245;29;20180;-93
2020/12/12 00:54:52;;;;;;;46.70;16.40;;;9.60;99.90;;;;;;3994206;29;20168;-91
2020/12/12 00:56:53;;;;;;;41.67;15.93;;;9.60;99.90;;;;;;3994169;29;20207;-92
2020/12/12 00:58:54;;;;;;;49.57;16.83;;;9.60;99.90;;;;;;3994225;29;20191;-93
2020/12/12 01:00:54;;;;;;;46.63;16.07;;;9.50;99.90;;;;;;3994239;29;20176;-92
2020/12/12 01:02:55;;;;;;;45.57;15.70;;;9.50;99.90;;;;;;3994868;29;20179;-93
2020/12/12 01:04:56;;;;;;;41.77;16.87;;;9.30;99.90;;;;;;4009393;29;20182;-91
2020/12/12 01:06:56;;;;;;;46.50;16.43;;;9.10;99.90;;;;;;3994003;29;20238;-91
2020/12/12 01:08:57;;;;;;;39.30;17.10;;;9.10;99.90;;;;;;4009317;29;20187;-91
2020/12/12 01:10:58;;;;;;;48.47;16.83;;;9.00;99.90;;;;;;3994007;29;20294;-91
2020/12/12 01:12:58;;;;;;;46.03;15.90;;;8.90;99.90;;;;;;3994439;29;20164;-92
2020/12/12 01:14:59;;;;;;;41.17;16.40;;;9.00;99.90;;;;;;3993983;29;20637;-92
2020/12/12 01:17:00;;;;;;;40.77;16.27;;;9.00;99.90;;;;;;4009280;29;20319;-92
2020/12/12 01:19:01;;;;;;;54.77;16.67;;;9.10;99.90;;;;;;3993931;29;20179;-91
2020/12/12 01:21:03;;;;;;;46.43;16.50;;;9.00;99.90;;;;;;4009595;29;20193;-91
2020/12/12 01:23:04;;;;;;;44.73;17.57;;;9.10;99.90;;;;;;3993957;29;20595;-92
2020/12/12 01:25:05;;;;;;;54.77;15.83;;;9.10;99.90;;;;;;4009150;29;20231;-92
2020/12/12 01:27:05;;;;;;;61.40;17.77;;;9.10;99.90;;;;;;3993866;29;20199;-93
2020/12/12 01:29:08;;;;;;;49.70;17.63;;;9.10;99.90;;;;;;3993679;29;20186;-91
2020/12/12 01:31:13;;;;;;;39.33;15.97;;;9.20;99.90;;;;;;3993804;29;20680;-92
2020/12/12 01:33:14;;;;;;;47.70;16.77;;;9.20;99.90;;;;;;3994326;29;20194;-91
2020/12/12 01:35:15;;;;;;;48.50;17.43;;;9.10;99.90;;;;;;3993747;29;20600;-93
2020/12/12 01:37:16;;;;;;;57.93;18.07;;;9.10;99.90;;;;;;3993326;29;20286;-94
2020/12/12 01:39:17;;;;;;;43.87;18.00;;;9.20;99.90;;;;;;3993791;29;20644;-92
2020/12/12 01:41:18;;;;;;;60.70;19.57;;;9.20;99.90;;;;;;4008739;29;20174;-91
2020/12/12 01:43:19;;;;;;;59.43;19.17;;;9.20;99.90;;;;;;4008844;29;20183;-91
2020/12/12 01:45:20;;;;;;;58.07;19.10;;;9.10;99.90;;;;;;4008739;29;20217;-91
2020/12/12 01:47:20;;;;;;;50.60;18.43;;;9.20;99.90;;;;;;4008738;29;20799;-91
2020/12/12 01:49:21;;;;;;;60.77;18.47;;;9.30;99.90;;;;;;3993543;29;20182;-92
2020/12/12 01:51:26;;;;;;;57.37;19.10;;;9.20;99.90;;;;;;4008658;29;20203;-92
2020/12/12 01:53:27;;;;;;;59.70;19.67;;;9.10;99.90;;;;;;3993620;29;20213;-93
2020/12/12 01:55:29;;;;;;;56.57;19.27;;;9.20;99.90;;;;;;4008663;29;20168;-92
2020/12/12 01:57:30;;;;;;;59.60;19.13;;;9.20;99.90;;;;;;4008266;29;20195;-91
2020/12/12 01:59:31;;;;;;;62.70;20.10;;;9.30;99.90;;;;;;4008660;29;20219;-90
2020/12/12 02:01:38;;;;;;;67.70;19.53;;;9.30;99.90;;;;;;3993605;29;20179;-92
2020/12/12 02:03:42;;;;;;;63.93;18.87;;;9.30;99.90;;;;;;3993620;29;20232;-91
2020/12/12 02:05:45;;;;;;;66.27;20.00;;;9.20;99.90;;;;;;3993590;29;20272;-91
2020/12/12 02:07:46;;;;;;;54.87;18.43;;;9.20;99.90;;;;;;3993601;29;20686;-92
2020/12/12 02:09:48;;;;;;;44.73;18.87;;;9.30;99.90;;;;;;3993382;29;20176;-91
2020/12/12 02:11:49;;;;;;;59.43;18.50;;;9.30;99.90;;;;;;4008296;29;20218;-90
2020/12/12 02:13:50;;;;;;;50.13;17.63;;;9.30;99.90;;;;;;4008387;29;20175;-90
2020/12/12 02:15:51;;;;;;;45.50;17.63;;;9.10;99.90;;;;;;3993283;29;20326;-92
2020/12/12 02:17:51;;;;;;;54.13;16.80;;;9.00;99.90;;;;;;4008242;29;20199;-93
2020/12/12 02:19:52;;;;;;;61.97;17.40;;;9.00;99.90;;;;;;3993231;29;20555;-91
2020/12/12 02:21:59;;;;;;;49.40;16.40;;;9.30;99.90;;;;;;4008179;29;20173;-92
2020/12/12 02:24:00;;;;;;;69.10;18.13;;;9.50;99.90;;;;;;3993170;29;20179;-91
2020/12/12 02:26:01;;;;;;;61.07;17.43;;;9.60;99.90;;;;;;4008122;29;20231;-92
2020/12/12 02:28:03;;;;;;;48.07;17.07;;;9.50;99.90;;;;;;3993143;29;20207;-90
2020/12/12 02:30:08;;;;;;;60.07;16.50;;;9.50;99.90;;;;;;4008062;29;20191;-91
2020/12/12 02:32:09;;;;;;;57.13;17.00;;;9.60;99.90;;;;;;3992968;29;20216;-95
2020/12/12 02:34:10;;;;;;;58.27;17.43;;;9.60;99.90;;;;;;3993038;29;20683;-91
2020/12/12 02:36:11;;;;;;;37.47;15.73;;;9.60;99.90;;;;;;3993087;29;20537;-93
2020/12/12 02:38:12;;;;;;;54.23;16.30;;;9.70;99.90;;;;;;4008679;29;20187;-93
2020/12/12 02:40:12;;;;;;;48.67;16.37;;;9.80;99.90;;;;;;4008011;29;20625;-91
2020/12/12 02:42:13;;;;;;;61.03;16.50;;;9.80;99.90;;;;;;3992886;29;20322;-92
2020/12/12 02:44:14;;;;;;;55.43;16.27;;;9.90;99.90;;;;;;4007904;29;20179;-90
2020/12/12 02:46:14;;;;;;;60.17;15.70;;;9.90;99.90;;;;;;3992796;29;20184;-92
2020/12/12 02:48:15;;;;;;;54.93;16.17;;;9.90;99.90;;;;;;3992904;29;20186;-91
2020/12/12 02:50:25;;;;;;;67.23;17.23;;;10.00;99.90;;;;;;3993217;29;20548;-93
2020/12/12 02:52:26;;;;;;;53.87;16.00;;;10.00;99.90;;;;;;4007730;29;20618;-91
2020/12/12 02:54:26;;;;;;;46.30;15.20;;;10.00;99.90;;;;;;4007752;29;20261;-92
2020/12/12 02:56:28;;;;;;;39.23;14.70;;;10.00;99.90;;;;;;3992619;29;20207;-92
2020/12/12 02:58:29;;;;;;;63.93;16.03;;;10.00;99.90;;;;;;4007861;29;20218;-92
2020/12/12 03:00:29;;;;;;;42.50;15.03;;;10.00;99.90;;;;;;3992800;29;20607;-91
2020/12/12 03:02:30;;;;;;;50.50;16.07;;;10.00;99.90;;;;;;4007525;29;20175;-92
2020/12/12 03:04:31;;;;;;;49.03;15.47;;;10.00;99.90;;;;;;3992586;29;20179;-93
2020/12/12 03:06:31;;;;;;;52.73;16.20;;;10.00;99.90;;;;;;4007376;29;20195;-91
2020/12/12 03:08:32;;;;;;;42.83;15.17;;;10.00;99.90;;;;;;4007308;29;20262;-91
2020/12/12 03:10:33;;;;;;;44.10;15.37;;;9.80;99.90;;;;;;3992287;29;20254;-91
2020/12/12 03:12:35;;;;;;;39.93;15.07;;;9.90;99.90;;;;;;4007801;29;20232;-91
2020/12/12 03:14:36;;;;;;;48.60;16.33;;;9.80;99.90;;;;;;4007836;29;20171;-92
2020/12/12 03:16:36;;;;;;;40.20;15.70;;;9.60;99.90;;;;;;3992770;29;20702;-93
2020/12/12 03:18:37;;;;;;;41.00;15.47;;;9.60;99.90;;;;;;4007565;29;20198;-91
2020/12/12 03:20:38;;;;;;;51.23;16.50;;;9.50;99.90;;;;;;3992570;29;20677;-94
2020/12/12 03:22:38;;;;;;;46.67;15.60;;;9.60;99.90;;;;;;4008083;29;20676;-92
2020/12/12 03:24:39;;;;;;;43.77;16.63;;;9.60;99.90;;;;;;4007410;29;20171;-91
2020/12/12 03:26:40;;;;;;;60.63;15.30;;;9.60;99.90;;;;;;3992410;29;20195;-92
2020/12/12 03:28:40;;;;;;;56.83;16.67;;;9.70;99.90;;;;;;4007361;29;20203;-94
2020/12/12 03:30:41;;;;;;;46.63;15.07;;;9.70;99.90;;;;;;3992348;29;20175;-91
2020/12/12 03:32:42;;;;;;;46.90;15.17;;;9.70;99.90;;;;;;3992380;29;20180;-93
2020/12/12 03:34:45;;;;;;;51.57;16.17;;;9.80;99.90;;;;;;3993222;29;20175;-91
2020/12/12 03:36:46;;;;;;;48.17;15.53;;;9.80;99.90;;;;;;4007037;29;20275;-92
2020/12/12 03:38:47;;;;;;;47.20;15.53;;;9.90;99.90;;;;;;4007303;29;20215;-91
2020/12/12 03:40:48;;;;;;;34.30;15.03;;;9.80;99.90;;;;;;4007176;29;20282;-93
2020/12/12 03:42:49;;;;;;;44.23;15.40;;;9.60;99.90;;;;;;4008135;29;20175;-92
2020/12/12 03:44:50;;;;;;;48.63;15.20;;;9.40;99.90;;;;;;3992253;29;20176;-91
2020/12/12 03:46:50;;;;;;;43.20;15.63;;;9.20;99.90;;;;;;3992391;29;20693;-90
2020/12/12 03:48:51;;;;;;;42.50;14.47;;;9.20;99.90;;;;;;4008028;29;20197;-93
2020/12/12 03:50:52;;;;;;;50.50;14.63;;;9.20;99.90;;;;;;3992015;29;20211;-93
2020/12/12 03:52:53;;;;;;;54.27;15.03;;;9.30;99.90;;;;;;4007179;29;20194;-91
2020/12/12 03:54:53;;;;;;;44.97;14.23;;;9.30;99.90;;;;;;3992086;29;20172;-93
2020/12/12 03:56:54;;;;;;;40.70;14.70;;;9.40;99.90;;;;;;4007048;29;20242;-91
2020/12/12 03:58:55;;;;;;;56.80;14.67;;;9.40;99.90;;;;;;4007453;29;20179;-91
2020/12/12 04:00:56;;;;;;;47.93;16.03;;;9.50;99.90;;;;;;3992130;29;20180;-91
2020/12/12 04:02:56;;;;;;;51.00;14.90;;;9.50;99.90;;;;;;4007137;29;20179;-91
2020/12/12 04:04:57;;;;;;;49.13;14.23;;;9.50;99.90;;;;;;3991901;29;20270;-92
2020/12/12 04:06:58;;;;;;;42.83;14.30;;;9.50;99.90;;;;;;3991932;29;20203;-91
2020/12/12 04:09:00;;;;;;;61.93;14.40;;;9.50;99.90;;;;;;4007085;29;20186;-92
2020/12/12 04:11:01;;;;;;;46.27;14.23;;;9.50;99.90;;;;;;3991772;29;20207;-94
2020/12/12 04:13:03;;;;;;;52.37;15.27;;;9.50;99.90;;;;;;4007007;29;20175;-91
2020/12/12 04:15:04;;;;;;;51.13;14.97;;;9.60;99.90;;;;;;4006879;29;20179;-92
2020/12/12 04:17:05;;;;;;;51.27;14.53;;;9.70;99.90;;;;;;4006935;29;20226;-92
2020/12/12 04:19:05;;;;;;;50.20;13.67;;;9.60;99.90;;;;;;3992048;29;20187;-92
2020/12/12 04:21:07;;;;;;;36.93;14.67;;;9.60;99.90;;;;;;3993571;29;20183;-93
2020/12/12 04:23:08;;;;;;;37.60;12.70;;;9.50;99.90;;;;;;4010085;29;20190;-91
2020/12/12 04:25:09;;;;;;;48.00;13.80;;;9.30;99.90;;;;;;3995031;29;20175;-93
2020/12/12 04:27:09;;;;;;;39.63;12.70;;;9.40;99.90;;;;;;4009980;29;20206;-91
2020/12/12 04:29:10;;;;;;;46.70;13.50;;;9.50;99.90;;;;;;3994812;29;20206;-93
2020/12/12 04:31:11;;;;;;;42.40;14.00;;;9.70;99.90;;;;;;4009987;29;20215;-91
2020/12/12 04:33:12;;;;;;;49.50;15.73;;;9.80;99.90;;;;;;3994678;29;20180;-90
2020/12/12 04:35:12;;;;;;;58.70;14.33;;;9.80;99.90;;;;;;4010287;29;20183;-93
2020/12/12 04:37:13;;;;;;;45.80;13.80;;;9.90;99.90;;;;;;3994217;29;20231;-92
2020/12/12 04:39:14;;;;;;;50.30;15.00;;;9.80;99.90;;;;;;4009680;29;20191;-91
2020/12/12 04:41:15;;;;;;;59.13;15.63;;;9.90;99.90;;;;;;4009763;29;20231;-91
2020/12/12 04:43:16;;;;;;;47.53;13.40;;;9.80;99.90;;;;;;3994464;29;20188;-91
2020/12/12 04:45:20;;;;;;;39.90;13.23;;;9.80;99.90;;;;;;3994558;29;20187;-91
2020/12/12 04:47:24;;;;;;;43.53;13.45;;;9.90;99.90;;;;;;3994804;29;20718;-92
2020/12/12 04:49:25;;;;;;;33.93;12.83;;;10.00;99.90;;;;;;3994423;29;20678;-91
2020/12/12 04:51:26;;;;;;;48.30;13.73;;;10.10;99.90;;;;;;4009501;29;20207;-92
2020/12/12 04:53:27;;;;;;;50.67;13.80;;;10.10;99.90;;;;;;3994295;29;20184;-91
2020/12/12 04:55:29;;;;;;;43.30;12.60;;;10.20;99.90;;;;;;4009531;29;20189;-91
2020/12/12 04:57:33;;;;;;;52.63;13.45;;;10.20;99.90;;;;;;3994112;29;20253;-91
2020/12/12 04:59:35;;;;;;;38.90;12.90;;;10.20;99.90;;;;;;3994225;29;20206;-91
2020/12/12 05:01:37;;;;;;;41.08;12.98;;;10.00;99.90;;;;;;3994094;29;20232;-94
2020/12/12 05:03:41;;;;;;;47.75;12.00;;;10.00;99.90;;;;;;4009749;29;20177;-91
2020/12/12 05:05:43;;;;;;;48.50;13.07;;;9.90;99.90;;;;;;3994031;29;20210;-91
2020/12/12 05:07:43;;;;;;;58.70;16.07;;;9.90;99.90;;;;;;3994237;29;20200;-91
2020/12/12 05:09:44;;;;;;;62.93;17.83;;;9.90;99.90;;;;;;4009222;29;20175;-91
2020/12/12 05:11:46;;;;;;;63.33;20.23;;;10.00;99.90;;;;;;3993972;29;20207;-91
2020/12/12 05:13:47;;;;;;;64.40;24.37;;;10.00;99.90;;;;;;3994034;29;20241;-93
2020/12/12 05:15:50;;;;;;;54.93;19.40;;;9.80;99.90;;;;;;4009536;29;20188;-91
2020/12/12 05:17:50;;;;;;;61.50;17.43;;;9.80;99.90;;;;;;3994242;29;20306;-91
2020/12/12 05:19:51;;;;;;;58.50;17.07;;;9.80;99.90;;;;;;4009172;29;20175;-91
2020/12/12 05:21:54;;;;;;;58.50;17.10;;;9.80;99.90;;;;;;3994002;29;20176;-92
2020/12/12 05:23:55;;;;;;;49.33;18.63;;;10.00;99.90;;;;;;3994002;29;20184;-91
2020/12/12 05:25:57;;;;;;;44.23;16.07;;;9.90;99.90;;;;;;4009021;29;20599;-91
2020/12/12 05:27:57;;;;;;;55.40;15.00;;;9.80;99.90;;;;;;3993900;29;20705;-92
2020/12/12 05:29:59;;;;;;;60.85;14.57;;;9.60;99.90;;;;;;4009072;29;20179;-93
2020/12/12 05:32:00;;;;;;;54.03;13.60;;;9.60;99.90;;;;;;4008343;29;20215;-92
2020/12/12 05:34:14;;;;;;;46.70;13.53;;;9.60;99.90;;;;;;3993998;29;20179;-92
2020/12/12 05:36:15;;;;;;;49.77;12.73;;;9.50;99.90;;;;;;3993595;29;20652;-91
2020/12/12 05:38:16;;;;;;;52.77;14.77;;;9.60;99.90;;;;;;4009011;29;20296;-91
2020/12/12 05:40:18;;;;;;;50.17;14.03;;;9.80;99.90;;;;;;3994162;29;20263;-91
2020/12/12 05:42:20;;;;;;;51.83;14.57;;;9.70;99.90;;;;;;4009036;29;20179;-92
2020/12/12 05:44:21;;;;;;;54.70;14.47;;;9.60;99.90;;;;;;4008868;29;20175;-91
2020/12/12 05:46:23;;;;;;;53.63;14.97;;;9.50;99.90;;;;;;3993528;29;20210;-90
2020/12/12 05:48:25;;;;;;;59.07;16.10;;;9.60;99.90;;;;;;4008763;29;20202;-91
2020/12/12 05:50:26;;;;;;;54.83;15.83;;;9.70;99.90;;;;;;4008699;29;20183;-91
2020/12/12 05:52:29;;;;;;;54.97;15.47;;;9.70;99.90;;;;;;3993444;29;20273;-90
2020/12/12 05:54:30;;;;;;;67.23;16.30;;;9.80;99.90;;;;;;3993545;29;20628;-91
2020/12/12 05:56:31;;;;;;;65.80;15.83;;;9.80;99.90;;;;;;4008868;29;20207;-91
2020/12/12 05:58:32;;;;;;;60.83;15.97;;;9.90;99.90;;;;;;3993459;29;20171;-92
2020/12/12 06:00:33;;;;;;;90.33;16.30;;;9.80;99.90;;;;;;4008609;29;20207;-93
2020/12/12 06:02:35;;;;;;;78.83;16.30;;;9.80;99.90;;;;;;4008468;29;20223;-91
2020/12/12 06:04:48;;;;;;;77.53;17.20;;;9.80;99.90;;;;;;4008374;29;20243;-92
2020/12/12 06:06:56;;;;;;;86.40;17.20;;;9.70;99.90;;;;;;3993154;29;20671;-93
2020/12/12 06:09:02;;;;;;;89.73;16.40;;;9.70;99.90;;;;;;3993314;29;20559;-91
2020/12/12 06:11:08;;;;;;;86.53;16.93;;;9.80;99.90;;;;;;3993147;29;20214;-91
2020/12/12 06:13:08;;;;;;;98.37;17.00;;;9.60;99.90;;;;;;3993214;29;20252;-92
2020/12/12 06:15:17;;;;;;;99.37;17.47;;;9.70;99.90;;;;;;4008328;29;20572;-91
2020/12/12 06:17:36;;;;;;;79.67;16.07;;;9.60;99.90;;;;;;3993157;29;20207;-92
2020/12/12 06:19:39;;;;;;;73.20;16.77;;;9.50;99.90;;;;;;3993603;29;20184;-95
2020/12/12 06:21:49;;;;;;;95.03;17.43;;;9.30;99.90;;;;;;4008363;29;20245;-92
2020/12/12 06:23:50;;;;;;;77.63;16.53;;;9.30;99.90;;;;;;3993182;29;20182;-90
2020/12/12 06:25:50;;;;;;;76.53;16.27;;;9.30;99.90;;;;;;4008107;29;20266;-92
2020/12/12 06:27:54;;;;;;;80.73;16.20;;;9.10;99.90;;;;;;3993088;29;20200;-91
2020/12/12 06:29:55;;;;;;;77.67;16.70;;;9.10;99.90;;;;;;3993052;29;20207;-91
2020/12/12 06:31:57;;;;;;;70.43;16.27;;;9.10;99.90;;;;;;3992944;29;20215;-90
2020/12/12 06:33:57;;;;;;;73.30;16.77;;;9.10;99.90;;;;;;4008123;29;20315;-92
2020/12/12 06:36:18;;;;;;;71.33;16.87;;;9.20;99.90;;;;;;3993025;29;20191;-92
2020/12/12 06:38:27;;;;;;;106.93;17.57;;;9.20;99.90;;;;;;4007800;29;20194;-92
2020/12/12 06:40:40;;;;;;;80.63;16.53;;;9.40;99.90;;;;;;3993118;29;20575;-90
2020/12/12 06:42:41;;;;;;;100.00;18.67;;;9.20;99.90;;;;;;4008391;29;20178;-91
2020/12/12 06:44:42;;;;;;;109.27;18.63;;;9.10;99.90;;;;;;3993006;29;20179;-90
2020/12/12 06:46:54;;;;;;;95.47;17.47;;;9.00;99.90;;;;;;4008027;29;20294;-91
2020/12/12 06:49:08;;;;;;;90.73;19.67;;;9.10;99.90;;;;;;3993130;29;20236;-94
2020/12/12 06:51:09;;;;;;;90.53;20.40;;;9.10;99.90;;;;;;3992828;29;20204;-90
2020/12/12 06:53:24;;;;;;;88.60;18.87;;;9.00;99.90;;;;;;4007784;29;20248;-93
2020/12/12 06:55:25;;;;;;;94.37;20.10;;;8.90;99.90;;;;;;3992933;29;20199;-90
2020/12/12 06:57:37;;;;;;;92.50;20.37;;;8.90;99.90;;;;;;4007711;29;20259;-90
2020/12/12 06:59:38;;;;;;;144.57;21.07;;;9.00;99.90;;;;;;4007820;29;20659;-90
2020/12/12 07:01:39;;;;;;;135.73;21.83;;;9.00;99.90;;;;;;3992777;29;20186;-93
2020/12/12 07:03:54;;;;;;;126.67;21.20;;;9.00;99.90;;;;;;4007726;29;20171;-93
2020/12/12 07:06:05;;;;;;;208.80;24.07;;;9.10;99.90;;;;;;3992657;29;20180;-93
2020/12/12 07:08:09;;;;;;;137.00;21.90;;;9.00;99.90;;;;;;3992640;29;20569;-91
2020/12/12 07:10:10;;;;;;;237.43;22.40;;;9.20;99.90;;;;;;3992637;29;20187;-91
2020/12/12 07:12:11;;;;;;;178.80;22.53;;;9.10;99.90;;;;;;3992645;29;20210;-91
2020/12/12 07:14:12;;;;;;;186.60;22.97;;;9.00;99.90;;;;;;3992629;29;20172;-92
2020/12/12 07:16:14;;;;;;;153.17;21.70;;;9.10;99.90;;;;;;4007446;29;20183;-90
2020/12/12 07:18:15;;;;;;;203.43;22.43;;;9.20;99.90;;;;;;3992520;29;20176;-91
2020/12/12 07:20:16;;;;;;;140.60;21.07;;;9.20;99.90;;;;;;4007332;29;20179;-90
2020/12/12 07:22:16;;;;;;;214.37;22.27;;;9.10;99.90;;;;;;3992498;29;20188;-91
2020/12/12 07:24:17;;;;;;;164.93;20.80;;;9.10;99.90;;;;;;4007879;29;20217;-93
2020/12/12 07:26:18;;;;;;;169.17;22.03;;;9.30;99.90;;;;;;3992431;29;20176;-93
2020/12/12 07:28:18;;;;;;;160.60;20.80;;;9.20;99.90;;;;;;3992496;29;20190;-91
2020/12/12 07:30:19;;;;;;;147.23;21.33;;;9.10;99.90;;;;;;3992359;29;20215;-91
2020/12/12 07:32:20;;;;;;;221.57;22.30;;;9.00;99.90;;;;;;4007703;29;20255;-91
2020/12/12 07:34:22;;;;;;;143.93;20.73;;;9.10;99.90;;;;;;3992303;29;20176;-91
2020/12/12 07:36:23;;;;;;;237.00;23.70;;;9.10;99.90;;;;;;3992033;29;20221;-91
2020/12/12 07:38:24;;;;;;;287.33;25.30;;;9.10;99.90;;;;;;4007435;29;20184;-92
2020/12/12 07:40:31;;;;;;;235.03;23.20;;;9.20;99.90;;;;;;3992333;29;20625;-93
2020/12/12 07:42:35;;;;;;;313.23;25.33;;;9.20;99.90;;;;;;4007226;29;20190;-91
2020/12/12 07:44:39;;;;;;;202.33;21.23;;;9.00;99.90;;;;;;4007228;29;20174;-90
2020/12/12 07:46:55;;;;;;;144.33;23.10;;;8.80;99.90;;;;;;3992243;29;20276;-92
2020/12/12 07:49:00;;;;;;;93.57;20.53;;;8.90;99.90;;;;;;3992144;29;20179;-91
2020/12/12 07:51:10;;;;;;;176.97;23.13;;;8.80;99.90;;;;;;4007212;29;20218;-94
2020/12/12 07:53:13;;;;;;;214.23;25.03;;;9.00;99.90;;;;;;4007351;29;20202;-91
2020/12/12 07:55:24;;;;;;;129.43;24.37;;;9.00;99.90;;;;;;4008745;29;20670;-91
2020/12/12 07:57:25;;;;;;;131.43;23.07;;;8.90;99.90;;;;;;4012428;29;20198;-92
2020/12/12 07:59:26;;;;;;;157.13;22.57;;;8.80;99.90;;;;;;3997178;29;20185;-92
2020/12/12 08:01:27;;;;;;;133.27;22.70;;;8.70;99.90;;;;;;4012209;29;20314;-93
2020/12/12 08:03:28;;;;;;;131.10;22.03;;;8.80;99.90;;;;;;3997080;29;20266;-92
2020/12/12 08:05:28;;;;;;;131.67;22.83;;;8.70;99.90;;;;;;4012122;29;20185;-93
2020/12/12 08:07:33;;;;;;;84.30;21.17;;;8.80;99.90;;;;;;3996922;29;20207;-91
2020/12/12 08:09:34;;;;;;;119.47;22.30;;;8.70;99.90;;;;;;4011963;29;20206;-92
2020/12/12 08:11:35;;;;;;;115.63;23.13;;;8.60;99.90;;;;;;3996749;29;20628;-91
2020/12/12 08:13:36;;;;;;;168.27;24.00;;;8.50;99.90;;;;;;4012132;29;20185;-90
2020/12/12 08:15:42;;;;;;;122.67;23.03;;;8.60;99.90;;;;;;3996900;29;20175;-91
2020/12/12 08:17:44;;;;;;;165.63;25.13;;;8.70;99.90;;;;;;3996792;29;20692;-92
2020/12/12 08:19:49;;;;;;;97.87;21.70;;;8.70;99.90;;;;;;3996805;29;20195;-91
2020/12/12 08:22:01;;;;;;;171.30;25.20;;;8.60;99.90;;;;;;3996930;29;20176;-92
2020/12/12 08:24:08;;;;;;;106.77;22.37;;;8.80;99.90;;;;;;4012060;29;20675;-93
2020/12/12 08:26:12;;;;;;;145.40;23.40;;;8.80;99.90;;;;;;3996773;29;20171;-90
2020/12/12 08:28:16;;;;;;;153.50;25.00;;;8.80;99.90;;;;;;3996815;29;20278;-92
2020/12/12 08:30:16;;;;;;;145.87;24.90;;;8.90;99.90;;;;;;3997396;29;20172;-91
2020/12/12 08:32:34;;;;;;;118.40;24.50;;;8.90;99.90;;;;;;4011933;29;20644;-93
2020/12/12 08:34:35;;;;;;;170.10;32.03;;;9.00;99.90;;;;;;3996815;29;20311;-91
2020/12/12 08:36:36;;;;;;;116.57;25.50;;;8.90;99.90;;;;;;3996508;29;20239;-91
2020/12/12 08:38:37;;;;;;;131.60;24.10;;;9.00;99.90;;;;;;3996849;29;20787;-91
2020/12/12 08:40:45;;;;;;;128.43;25.77;;;9.20;99.90;;;;;;4012285;29;20178;-93
2020/12/12 08:43:02;;;;;;;111.23;23.87;;;9.10;99.90;;;;;;3996796;29;20210;-91
2020/12/12 08:45:23;;;;;;;144.53;24.87;;;9.10;99.90;;;;;;3996718;29;20263;-91
2020/12/12 08:47:23;;;;;;;86.23;23.10;;;9.10;99.90;;;;;;3996397;29;20684;-93
2020/12/12 08:49:24;;;;;;;139.80;23.47;;;9.10;99.90;;;;;;3997078;29;20190;-92
2020/12/12 08:51:30;;;;;;;92.07;23.43;;;8.90;99.90;;;;;;4026943;29;20243;-92
2020/12/12 08:53:44;;;;;;;111.50;23.53;;;9.00;99.90;;;;;;4011862;29;20672;-93
2020/12/12 08:55:58;;;;;;;123.33;24.63;;;9.00;99.90;;;;;;4011889;29;20175;-91
2020/12/12 08:58:00;;;;;;;103.60;25.63;;;9.10;99.90;;;;;;4011928;29;20203;-91
2020/12/12 09:00:04;;;;;;;106.63;23.43;;;9.00;99.90;;;;;;4011787;29;20171;-92
2020/12/12 09:02:17;;;;;;;95.07;23.63;;;9.10;99.90;;;;;;4012115;29;20527;-91
2020/12/12 09:04:22;;;;;;;84.40;25.13;;;9.00;99.90;;;;;;4012490;29;20173;-91
2020/12/12 09:06:24;;;;;;;80.33;24.20;;;8.90;99.90;;;;;;4011155;29;20203;-92
2020/12/12 09:08:26;;;;;;;90.43;25.47;;;9.00;99.90;;;;;;4008715;29;20277;-92
2020/12/12 09:10:26;;;;;;;94.00;23.67;;;9.20;99.90;;;;;;4009549;29;20186;-92
2020/12/12 09:12:42;;;;;;;85.97;22.47;;;9.30;99.90;;;;;;3994295;29;20219;-92
2020/12/12 09:14:43;;;;;;;96.57;23.97;;;9.30;99.90;;;;;;3994151;29;20675;-92
2020/12/12 09:16:47;;;;;;;69.97;22.07;;;9.40;99.90;;;;;;3993921;29;20264;-91
2020/12/12 09:18:48;;;;;;;78.00;22.87;;;9.60;99.90;;;;;;4009361;29;20272;-93
2020/12/12 09:20:49;;;;;;;90.77;23.27;;;9.60;99.90;;;;;;4009272;29;20175;-92
2020/12/12 09:22:50;;;;;;;80.43;24.37;;;9.60;99.90;;;;;;4009356;29;20179;-92
2020/12/12 09:24:51;;;;;;;71.30;23.40;;;9.50;99.90;;;;;;4009025;29;20285;-93
2020/12/12 09:26:55;;;;;;;74.47;22.63;;;9.50;99.90;;;;;;3993807;29;20282;-93
2020/12/12 09:28:55;;;;;;;75.97;22.20;;;9.50;99.90;;;;;;3994384;29;20179;-94
2020/12/12 09:30:56;;;;;;;61.37;22.10;;;9.40;99.90;;;;;;4008907;29;20662;-91
2020/12/12 09:32:57;;;;;;;75.33;22.13;;;9.30;99.90;;;;;;3994222;29;20195;-92
2020/12/12 09:34:58;;;;;;;68.57;22.07;;;9.30;99.90;;;;;;4009517;29;20179;-93
2020/12/12 09:37:01;;;;;;;66.17;23.93;;;9.50;99.90;;;;;;3993657;29;20564;-92
2020/12/12 09:39:03;;;;;;;66.43;22.13;;;9.40;99.90;;;;;;4009841;29;20564;-93
2020/12/12 09:41:04;;;;;;;63.47;22.00;;;9.50;99.90;;;;;;4009146;29;20179;-92
2020/12/12 09:43:05;;;;;;;68.53;21.90;;;9.50;99.90;;;;;;4008949;29;20194;-93
2020/12/12 09:45:05;;;;;;;65.40;21.53;;;9.60;99.90;;;;;;4008792;29;20179;-93
2020/12/12 09:47:06;;;;;;;57.67;20.87;;;9.60;99.90;;;;;;3993517;29;20321;-91
2020/12/12 09:49:07;;;;;;;66.10;21.83;;;9.70;99.90;;;;;;4009356;29;20187;-92
2020/12/12 09:51:08;;;;;;;52.57;19.80;;;9.80;99.90;;;;;;3993512;29;20232;-92
2020/12/12 09:53:10;;;;;;;61.03;23.07;;;9.70;99.90;;;;;;3993539;29;20183;-91
2020/12/12 09:55:11;;;;;;;58.07;22.67;;;9.60;99.90;;;;;;3993496;29;20206;-93
2020/12/12 09:57:12;;;;;;;71.23;22.90;;;9.60;99.90;;;;;;3993458;29;20200;-92
2020/12/12 09:59:13;;;;;;;56.33;21.50;;;9.70;99.90;;;;;;3993568;29;20180;-91
2020/12/12 10:01:14;;;;;;;60.60;23.60;;;9.80;99.90;;;;;;4008718;29;20236;-93
2020/12/12 10:03:15;;;;;;;51.42;20.63;;;9.80;99.90;;;;;;4008846;29;20178;-95
2020/12/12 10:05:16;;;;;;;58.83;23.73;;;9.90;99.90;;;;;;3993430;29;20602;-92
2020/12/12 10:07:17;;;;;;;53.97;21.53;;;9.90;99.90;;;;;;4008623;29;20253;-91
2020/12/12 10:09:18;;;;;;;53.67;20.30;;;9.90;99.90;;;;;;3993386;29;20176;-93
2020/12/12 10:11:18;;;;;;;52.37;20.00;;;10.00;99.90;;;;;;4008825;29;20262;-93
2020/12/12 10:13:20;;;;;;;61.13;21.00;;;10.10;99.90;;;;;;3993459;29;20228;-92
2020/12/12 10:15:22;;;;;;;45.90;19.67;;;10.20;99.90;;;;;;4008349;29;20266;-92
2020/12/12 10:17:22;;;;;;;55.03;20.67;;;10.20;99.90;;;;;;4008420;29;20255;-91
2020/12/12 10:19:23;;;;;;;46.57;19.93;;;10.30;99.90;;;;;;3993113;29;20176;-91
2020/12/12 10:21:24;;;;;;;53.28;21.70;;;10.30;99.90;;;;;;4008497;29;20216;-93
2020/12/12 10:23:25;;;;;;;47.23;19.80;;;10.50;99.90;;;;;;3993350;29;20211;-92
2020/12/12 10:25:25;;;;;;;51.57;20.47;;;10.60;99.90;;;;;;3993365;29;20176;-90